createdAt,value
2018-07-31T00:02:05.343Z,77.58
2018-07-31T00:04:34.178Z,77.61
2018-07-31T00:07:03.018Z,77.55
2018-07-31T00:09:32.026Z,77.71
2018-07-31T00:12:00.894Z,78.11
2018-07-31T00:14:29.753Z,78.25
2018-07-31T00:16:58.582Z,77.86
2018-07-31T00:19:27.389Z,78.04
2018-07-31T00:21:56.204Z,78.08
2018-07-31T00:24:25.110Z,77.97
2018-07-31T00:26:53.862Z,77.86
2018-07-31T00:29:22.650Z,77.67
2018-07-31T00:31:51.453Z,78.49
2018-07-31T00:34:20.281Z,78.32
2018-07-31T00:36:49.121Z,78.26
2018-07-31T00:39:17.918Z,78.78
2018-07-31T00:41:46.785Z,78.22
2018-07-31T00:44:15.611Z,78.62
2018-07-31T00:46:44.460Z,77.99
2018-07-31T00:49:13.275Z,78.16
2018-07-31T00:51:42.079Z,78.36
2018-07-31T00:54:10.884Z,78.30
2018-07-31T00:56:39.689Z,78.24
2018-07-31T00:59:08.529Z,78.87
2018-07-31T01:01:37.418Z,78.47
2018-07-31T01:04:06.295Z,78.44
2018-07-31T01:06:40.212Z,78.30
2018-07-31T01:09:10.617Z,78.23
2018-07-31T01:11:39.924Z,78.06
2018-07-31T01:14:09.742Z,78.14
2018-07-31T01:16:39.887Z,78.91
2018-07-31T01:19:09.156Z,78.30
2018-07-31T01:21:38.039Z,78.32
2018-07-31T01:24:07.425Z,78.74
2018-07-31T01:26:36.242Z,78.23
2018-07-31T01:29:05.075Z,77.90
2018-07-31T01:31:33.944Z,77.95
2018-07-31T01:34:02.764Z,78.14
2018-07-31T01:36:31.624Z,78.11
2018-07-31T01:39:00.446Z,78.27
2018-07-31T01:41:29.246Z,78.29
2018-07-31T01:43:58.081Z,78.50
2018-07-31T01:46:26.905Z,78.40
2018-07-31T01:48:55.736Z,78.18
2018-07-31T01:51:24.961Z,78.72
2018-07-31T01:53:53.780Z,78.83
2018-07-31T01:56:22.626Z,78.77
2018-07-31T01:58:51.544Z,78.49
2018-07-31T02:01:20.368Z,78.83
2018-07-31T02:03:49.198Z,78.63
2018-07-31T02:06:18.169Z,78.26
2018-07-31T02:08:46.980Z,78.81
2018-07-31T02:11:15.799Z,79.26
2018-07-31T02:13:44.640Z,79.65
2018-07-31T02:16:13.453Z,79.44
2018-07-31T02:18:42.276Z,79.03
2018-07-31T02:21:11.099Z,78.93
2018-07-31T02:23:39.880Z,78.94
2018-07-31T02:26:08.708Z,78.89
2018-07-31T02:28:37.554Z,79.00
2018-07-31T02:31:06.564Z,78.84
2018-07-31T02:33:35.370Z,79.26
2018-07-31T02:36:04.257Z,79.88
2018-07-31T02:38:33.161Z,79.65
2018-07-31T02:41:02.013Z,79.65
2018-07-31T02:43:30.900Z,79.54
2018-07-31T02:45:59.738Z,79.89
2018-07-31T02:48:28.521Z,80.40
2018-07-31T02:50:57.377Z,80.56
2018-07-31T02:53:26.293Z,80.30
2018-07-31T02:55:55.200Z,80.35
2018-07-31T02:58:24.020Z,80.23
2018-07-31T03:00:52.841Z,80.42
2018-07-31T03:03:21.646Z,80.41
2018-07-31T03:05:50.481Z,79.95
2018-07-31T03:08:19.354Z,80.30
2018-07-31T03:10:48.186Z,80.27
2018-07-31T03:13:17.015Z,80.45
2018-07-31T03:15:45.834Z,80.26
2018-07-31T03:18:14.918Z,80.82
2018-07-31T03:20:43.799Z,80.32
2018-07-31T03:23:12.610Z,80.15
2018-07-31T03:25:41.430Z,80.38
2018-07-31T03:28:10.363Z,80.42
2018-07-31T03:30:39.155Z,80.12
2018-07-31T03:33:07.972Z,80.54
2018-07-31T03:35:36.796Z,81.19
2018-07-31T03:38:05.621Z,81.07
2018-07-31T03:40:34.377Z,80.41
2018-07-31T03:43:03.207Z,80.21
2018-07-31T03:45:32.049Z,80.53
2018-07-31T03:48:00.852Z,80.43
2018-07-31T03:50:29.633Z,80.20
2018-07-31T03:52:58.434Z,80.14
2018-07-31T03:55:27.259Z,80.48
2018-07-31T03:57:56.091Z,80.27
2018-07-31T04:00:24.861Z,80.23
2018-07-31T04:02:53.690Z,80.22
2018-07-31T04:05:22.591Z,80.67
2018-07-31T04:07:51.373Z,80.61
2018-07-31T04:10:20.205Z,80.65
2018-07-31T04:12:49.037Z,80.46
2018-07-31T04:15:17.870Z,80.25
2018-07-31T04:17:49.960Z,80.36
2018-07-31T04:20:18.793Z,80.35
2018-07-31T04:22:47.573Z,80.10
2018-07-31T04:25:16.394Z,80.22
2018-07-31T04:27:45.248Z,80.16
2018-07-31T04:30:14.168Z,80.83
2018-07-31T04:32:42.931Z,80.29
2018-07-31T04:35:11.754Z,80.16
2018-07-31T04:37:40.638Z,80.37
2018-07-31T04:40:09.477Z,80.64
2018-07-31T04:42:38.301Z,80.18
2018-07-31T04:45:08.626Z,80.17
2018-07-31T04:47:38.017Z,80.21
2018-07-31T04:50:07.065Z,80.01
2018-07-31T04:52:35.939Z,79.99
2018-07-31T04:55:04.874Z,80.36
2018-07-31T04:57:33.678Z,80.30
2018-07-31T05:00:02.522Z,80.22
2018-07-31T05:02:31.352Z,80.38
2018-07-31T05:05:00.154Z,80.32
2018-07-31T05:07:28.970Z,80.04
2018-07-31T05:09:57.879Z,80.53
2018-07-31T05:12:26.695Z,80.10
2018-07-31T05:14:55.507Z,79.82
2018-07-31T05:17:24.273Z,79.99
2018-07-31T05:19:53.116Z,79.92
2018-07-31T05:22:21.924Z,79.96
2018-07-31T05:24:50.734Z,79.82
2018-07-31T05:27:19.589Z,79.97
2018-07-31T05:29:48.409Z,80.06
2018-07-31T05:32:17.222Z,79.82
2018-07-31T05:34:46.097Z,79.65
2018-07-31T05:37:15.253Z,79.84
2018-07-31T05:39:44.133Z,79.95
2018-07-31T05:42:12.905Z,79.88
2018-07-31T05:44:41.736Z,80.00
2018-07-31T05:47:10.557Z,79.88
2018-07-31T05:49:39.429Z,80.23
2018-07-31T05:52:08.266Z,80.12
2018-07-31T05:54:37.049Z,80.03
2018-07-31T05:57:05.865Z,80.02
2018-07-31T05:59:34.661Z,80.30
2018-07-31T06:02:03.497Z,80.05
2018-07-31T06:04:32.390Z,80.11
2018-07-31T06:07:01.210Z,80.45
2018-07-31T06:09:30.060Z,79.87
2018-07-31T06:11:58.862Z,80.23
2018-07-31T06:14:27.706Z,80.21
2018-07-31T06:16:56.509Z,80.08
2018-07-31T06:19:25.361Z,80.00
2018-07-31T06:21:54.170Z,80.09
2018-07-31T06:24:23.001Z,79.73
2018-07-31T06:26:51.829Z,79.57
2018-07-31T06:29:20.629Z,79.50
2018-07-31T06:31:49.427Z,79.51
2018-07-31T06:34:18.217Z,79.36
2018-07-31T06:36:47.052Z,79.50
2018-07-31T06:39:15.882Z,79.56
2018-07-31T06:41:44.681Z,79.33
2018-07-31T06:44:13.478Z,79.00
2018-07-31T06:46:42.265Z,79.07
2018-07-31T06:49:11.130Z,78.98
2018-07-31T06:51:39.937Z,79.09
2018-07-31T06:54:09.233Z,79.20
2018-07-31T06:56:38.024Z,79.08
2018-07-31T06:59:06.817Z,78.52
2018-07-31T07:01:35.677Z,78.32
2018-07-31T07:04:04.699Z,78.83
2018-07-31T07:06:33.542Z,78.44
2018-07-31T07:09:02.357Z,78.69
2018-07-31T07:11:31.193Z,78.43
2018-07-31T07:14:00.051Z,78.29
2018-07-31T07:16:28.916Z,78.37
2018-07-31T07:18:57.730Z,77.95
2018-07-31T07:21:26.534Z,78.64
2018-07-31T07:23:55.336Z,78.32
2018-07-31T07:26:24.179Z,78.33
2018-07-31T07:28:52.981Z,78.14
2018-07-31T07:31:21.821Z,78.26
2018-07-31T07:33:50.666Z,78.32
2018-07-31T07:36:19.529Z,77.82
2018-07-31T07:38:48.286Z,77.94
2018-07-31T07:41:17.095Z,78.01
2018-07-31T07:43:45.925Z,78.07
2018-07-31T07:46:14.703Z,78.10
2018-07-31T07:48:43.534Z,77.72
2018-07-31T07:51:12.317Z,78.23
2018-07-31T07:53:41.067Z,78.07
2018-07-31T07:56:10.058Z,78.91
2018-07-31T07:58:38.873Z,78.58
2018-07-31T08:01:07.840Z,78.38
2018-07-31T08:03:36.662Z,78.41
2018-07-31T08:06:05.541Z,78.57
2018-07-31T08:08:34.298Z,78.55
2018-07-31T08:11:03.073Z,78.35
2018-07-31T08:13:31.893Z,78.27
2018-07-31T08:16:00.697Z,78.21
2018-07-31T08:18:29.530Z,78.12
2018-07-31T08:20:58.313Z,78.45
2018-07-31T08:23:27.269Z,78.49
2018-07-31T08:25:56.065Z,78.67
2018-07-31T08:28:24.899Z,78.36
2018-07-31T08:30:53.753Z,78.33
2018-07-31T08:33:22.570Z,78.45
2018-07-31T08:35:51.391Z,78.39
2018-07-31T08:38:20.245Z,78.34
2018-07-31T08:40:49.063Z,78.23
2018-07-31T08:43:17.882Z,77.88
2018-07-31T08:45:46.695Z,78.08
2018-07-31T08:48:15.503Z,77.44
2018-07-31T08:50:44.289Z,77.45
2018-07-31T08:53:13.071Z,77.25
2018-07-31T08:55:41.951Z,77.17
2018-07-31T08:58:10.689Z,77.08
2018-07-31T09:00:39.530Z,76.89
2018-07-31T09:03:08.368Z,76.95
2018-07-31T09:05:37.127Z,77.04
2018-07-31T09:08:05.971Z,76.86
2018-07-31T09:10:34.805Z,77.07
2018-07-31T09:13:03.618Z,77.04
2018-07-31T09:15:32.504Z,77.00
2018-07-31T09:18:01.332Z,76.66
2018-07-31T09:20:30.149Z,76.88
2018-07-31T09:22:58.948Z,76.68
2018-07-31T09:25:30.953Z,77.13
2018-07-31T09:27:59.741Z,76.75
2018-07-31T09:30:28.571Z,77.19
2018-07-31T09:33:02.463Z,76.42
2018-07-31T09:35:31.292Z,75.73
2018-07-31T09:38:00.147Z,76.01
2018-07-31T09:40:28.947Z,75.90
2018-07-31T09:42:57.771Z,75.62
2018-07-31T09:45:26.598Z,75.72
2018-07-31T09:47:55.409Z,75.81
2018-07-31T09:50:24.233Z,75.41
2018-07-31T09:52:53.048Z,75.74
2018-07-31T09:55:21.843Z,75.55
2018-07-31T09:57:50.653Z,75.26
2018-07-31T10:00:23.541Z,74.99
2018-07-31T10:02:53.543Z,75.17
2018-07-31T10:05:22.425Z,74.79
2018-07-31T10:07:51.231Z,74.59
2018-07-31T10:10:20.038Z,74.55
2018-07-31T10:12:48.865Z,74.66
2018-07-31T10:15:17.706Z,74.65
2018-07-31T10:17:46.540Z,74.63
2018-07-31T10:20:15.344Z,74.57
2018-07-31T10:22:44.159Z,74.62
2018-07-31T10:25:12.935Z,73.62
2018-07-31T10:27:41.719Z,74.36
2018-07-31T10:30:10.648Z,74.40
2018-07-31T10:32:39.440Z,73.74
2018-07-31T10:35:08.618Z,74.02
2018-07-31T10:37:37.611Z,74.37
2018-07-31T10:40:06.526Z,73.76
2018-07-31T10:42:35.317Z,74.29
2018-07-31T10:45:04.242Z,73.61
2018-07-31T10:47:33.066Z,73.97
2018-07-31T10:50:01.892Z,73.55
2018-07-31T10:52:30.707Z,74.03
2018-07-31T10:54:59.571Z,73.65
2018-07-31T10:57:28.405Z,73.43
2018-07-31T10:59:57.269Z,73.80
2018-07-31T11:02:26.105Z,73.74
2018-07-31T11:04:54.918Z,73.29
2018-07-31T11:07:23.746Z,73.78
2018-07-31T11:09:52.581Z,73.38
2018-07-31T11:12:21.398Z,72.87
2018-07-31T11:14:50.202Z,72.87
2018-07-31T11:17:19.022Z,73.09
2018-07-31T11:19:47.804Z,72.70
2018-07-31T11:22:16.586Z,73.23
2018-07-31T11:24:45.388Z,72.71
2018-07-31T11:27:14.183Z,72.61
2018-07-31T11:29:43.000Z,72.64
2018-07-31T11:32:11.775Z,72.74
2018-07-31T11:34:40.572Z,72.65
2018-07-31T11:37:09.584Z,72.61
2018-07-31T11:39:38.400Z,72.68
2018-07-31T11:42:07.221Z,72.55
2018-07-31T11:44:36.068Z,72.74
2018-07-31T11:47:04.895Z,72.80
2018-07-31T11:49:33.749Z,72.34
2018-07-31T11:52:02.548Z,72.72
2018-07-31T11:54:31.382Z,72.31
2018-07-31T11:57:00.227Z,72.48
2018-07-31T11:59:29.028Z,72.01
2018-07-31T12:01:57.808Z,72.04
2018-07-31T12:04:26.614Z,72.46
2018-07-31T12:06:55.429Z,72.27
2018-07-31T12:09:24.217Z,72.06
2018-07-31T12:11:53.013Z,71.78
2018-07-31T12:14:21.838Z,72.19
2018-07-31T12:16:50.621Z,72.11
2018-07-31T12:19:19.410Z,71.61
2018-07-31T12:21:48.357Z,72.11
2018-07-31T12:24:17.161Z,71.49
2018-07-31T12:26:45.968Z,71.45
2018-07-31T12:29:14.829Z,71.76
2018-07-31T12:31:43.618Z,71.51
2018-07-31T12:34:12.400Z,72.02
2018-07-31T12:36:41.200Z,71.48
2018-07-31T12:39:11.912Z,71.95
2018-07-31T12:41:40.733Z,72.12
2018-07-31T12:44:09.600Z,71.99
2018-07-31T12:46:38.688Z,71.67
2018-07-31T12:49:07.579Z,72.03
2018-07-31T12:51:36.553Z,71.52
2018-07-31T12:54:05.380Z,71.56
2018-07-31T12:56:34.169Z,71.95
2018-07-31T12:59:02.984Z,71.57
2018-07-31T13:01:31.850Z,71.83
2018-07-31T13:04:00.654Z,71.22
2018-07-31T13:06:29.448Z,71.66
2018-07-31T13:08:58.306Z,71.86
2018-07-31T13:11:27.168Z,71.49
2018-07-31T13:13:55.969Z,71.37
2018-07-31T13:16:24.781Z,71.82
2018-07-31T13:18:53.618Z,71.19
2018-07-31T13:21:22.525Z,71.09
2018-07-31T13:23:51.327Z,71.33
2018-07-31T13:26:20.123Z,71.62
2018-07-31T13:28:48.953Z,71.50
2018-07-31T13:31:17.766Z,71.15
2018-07-31T13:33:46.557Z,71.12
2018-07-31T13:36:15.398Z,71.59
2018-07-31T13:38:44.422Z,71.16
2018-07-31T13:41:13.216Z,70.93
2018-07-31T13:43:42.072Z,71.51
2018-07-31T13:46:10.900Z,70.97
2018-07-31T13:48:39.698Z,71.27
2018-07-31T13:51:08.565Z,71.61
2018-07-31T13:53:37.378Z,70.93
2018-07-31T13:56:06.272Z,71.49
2018-07-31T13:58:35.053Z,71.16
2018-07-31T14:01:03.888Z,71.29
2018-07-31T14:03:32.679Z,71.36
2018-07-31T14:06:01.454Z,70.83
2018-07-31T14:08:30.324Z,71.38
2018-07-31T14:10:59.102Z,70.69
2018-07-31T14:13:27.933Z,70.74
2018-07-31T14:15:56.745Z,71.12
2018-07-31T14:18:25.555Z,71.03
2018-07-31T14:20:54.449Z,70.57
2018-07-31T14:23:23.276Z,70.55
2018-07-31T14:25:52.105Z,70.55
2018-07-31T14:28:20.913Z,71.09
2018-07-31T14:30:50.032Z,70.99
2018-07-31T14:33:18.783Z,70.48
2018-07-31T14:35:47.761Z,70.96
2018-07-31T14:38:16.596Z,70.92
2018-07-31T14:40:45.381Z,70.74
2018-07-31T14:43:14.192Z,71.00
2018-07-31T14:45:42.985Z,70.65
2018-07-31T14:48:11.768Z,70.40
2018-07-31T14:50:40.575Z,70.49
2018-07-31T14:53:09.693Z,70.33
2018-07-31T14:55:38.569Z,70.58
2018-07-31T14:58:07.446Z,70.24
2018-07-31T15:00:36.257Z,70.05
2018-07-31T15:03:05.252Z,69.53
2018-07-31T15:05:34.063Z,69.93
2018-07-31T15:08:02.934Z,69.91
2018-07-31T15:10:31.727Z,69.86
2018-07-31T15:13:00.494Z,70.16
2018-07-31T15:15:29.278Z,70.18
2018-07-31T15:17:58.058Z,70.11
2018-07-31T15:20:26.894Z,70.28
2018-07-31T15:22:55.716Z,70.36
2018-07-31T15:25:24.557Z,70.30
2018-07-31T15:27:53.375Z,69.88
2018-07-31T15:30:22.206Z,70.31
2018-07-31T15:32:51.060Z,70.39
2018-07-31T15:35:19.981Z,70.60
2018-07-31T15:37:48.792Z,69.95
2018-07-31T15:40:17.642Z,70.04
2018-07-31T15:42:46.467Z,70.19
2018-07-31T15:45:15.327Z,70.37
2018-07-31T15:47:44.143Z,70.18
2018-07-31T15:50:12.985Z,69.80
2018-07-31T15:52:41.820Z,69.61
2018-07-31T15:55:10.674Z,70.14
2018-07-31T15:57:39.569Z,70.27
2018-07-31T16:00:10.314Z,69.66
2018-07-31T16:02:39.417Z,70.23
2018-07-31T16:05:08.817Z,69.61
2018-07-31T16:07:37.688Z,69.87
2018-07-31T16:10:06.995Z,69.94
2018-07-31T16:12:35.818Z,69.42
2018-07-31T16:15:04.665Z,69.33
2018-07-31T16:17:33.514Z,69.37
2018-07-31T16:20:02.372Z,69.72
2018-07-31T16:22:31.205Z,69.46
2018-07-31T16:25:00.067Z,69.72
2018-07-31T16:27:28.932Z,69.92
2018-07-31T16:29:57.879Z,69.69
2018-07-31T16:32:26.800Z,69.75
2018-07-31T16:34:55.681Z,69.27
2018-07-31T16:37:24.590Z,69.73
2018-07-31T16:39:53.515Z,70.07
2018-07-31T16:42:22.369Z,69.38
2018-07-31T16:44:51.205Z,70.09
2018-07-31T16:47:20.047Z,69.99
2018-07-31T16:49:48.882Z,69.66
2018-07-31T16:52:17.726Z,69.42
2018-07-31T16:54:46.547Z,69.77
2018-07-31T16:57:15.387Z,69.28
2018-07-31T16:59:44.211Z,69.79
2018-07-31T17:02:13.011Z,69.33
2018-07-31T17:04:41.855Z,69.56
2018-07-31T17:07:10.729Z,69.44
2018-07-31T17:09:39.694Z,69.88
2018-07-31T17:12:08.838Z,69.65
2018-07-31T17:14:37.657Z,69.84
2018-07-31T17:17:06.501Z,69.47
2018-07-31T17:19:35.494Z,69.73
2018-07-31T17:22:04.402Z,69.51
2018-07-31T17:24:33.231Z,69.57
2018-07-31T17:27:02.075Z,69.35
2018-07-31T17:29:30.894Z,69.89
2018-07-31T17:31:59.711Z,69.79
2018-07-31T17:34:28.553Z,69.90
2018-07-31T17:36:57.353Z,69.53
2018-07-31T17:39:26.199Z,69.90
2018-07-31T17:41:55.028Z,69.31
2018-07-31T17:44:23.915Z,69.99
2018-07-31T17:46:52.698Z,69.59
2018-07-31T17:49:21.539Z,70.09
2018-07-31T17:51:50.379Z,69.98
2018-07-31T17:54:19.296Z,69.55
2018-07-31T17:56:48.190Z,69.95
2018-07-31T17:59:17.034Z,70.55
2018-07-31T18:01:45.883Z,70.36
2018-07-31T18:04:14.991Z,70.50
2018-07-31T18:06:43.938Z,70.11
2018-07-31T18:09:12.749Z,70.71
2018-07-31T18:11:41.623Z,70.39
2018-07-31T18:14:10.520Z,70.74
2018-07-31T18:16:39.368Z,70.17
2018-07-31T18:19:08.503Z,70.40
2018-07-31T18:21:37.419Z,70.54
2018-07-31T18:24:06.855Z,71.19
2018-07-31T18:26:35.826Z,71.20
2018-07-31T18:29:04.685Z,71.48
2018-07-31T18:31:33.548Z,71.53
2018-07-31T18:34:02.423Z,71.36
2018-07-31T18:36:31.298Z,71.00
2018-07-31T18:39:00.110Z,71.41
2018-07-31T18:41:28.946Z,71.26
2018-07-31T18:43:57.752Z,71.64
2018-07-31T18:46:26.600Z,71.38
2018-07-31T18:48:55.419Z,72.55
2018-07-31T18:51:24.266Z,72.71
2018-07-31T18:53:53.073Z,72.11
2018-07-31T18:56:22.070Z,71.91
2018-07-31T18:58:51.021Z,72.20
2018-07-31T19:01:20.014Z,72.18
2018-07-31T19:03:48.733Z,72.45
2018-07-31T19:06:17.534Z,72.21
2018-07-31T19:08:46.346Z,72.23
2018-07-31T19:11:15.171Z,72.58
2018-07-31T19:13:43.971Z,72.17
2018-07-31T19:16:12.764Z,72.24
2018-07-31T19:18:41.601Z,72.51
2018-07-31T19:21:10.392Z,73.21
2018-07-31T19:23:39.212Z,72.85
2018-07-31T19:26:07.992Z,72.81
2018-07-31T19:28:36.799Z,73.12
2018-07-31T19:31:05.644Z,73.65
2018-07-31T19:33:34.463Z,73.35
2018-07-31T19:36:03.257Z,73.85
2018-07-31T19:38:33.002Z,73.77
2018-07-31T19:41:01.981Z,73.45
2018-07-31T19:43:30.789Z,73.79
2018-07-31T19:45:59.632Z,73.64
2018-07-31T19:48:28.491Z,74.04
2018-07-31T19:50:57.262Z,74.17
2018-07-31T19:53:26.084Z,74.23
2018-07-31T19:55:57.992Z,73.95
2018-07-31T19:58:26.842Z,74.04
2018-07-31T20:00:55.650Z,74.82
2018-07-31T20:03:24.472Z,75.27
2018-07-31T20:05:53.454Z,74.75
2018-07-31T20:08:22.279Z,75.15
2018-07-31T20:10:51.122Z,75.01
2018-07-31T20:13:19.922Z,74.84
2018-07-31T20:15:48.783Z,75.10
2018-07-31T20:18:17.586Z,75.26
2018-07-31T20:20:46.475Z,75.87
2018-07-31T20:23:15.278Z,76.14
2018-07-31T20:25:44.142Z,75.27
2018-07-31T20:28:12.929Z,75.82
2018-07-31T20:30:41.759Z,75.13
2018-07-31T20:33:10.610Z,75.53
2018-07-31T20:35:39.401Z,75.68
2018-07-31T20:38:08.184Z,75.10
2018-07-31T20:40:37.014Z,75.20
2018-07-31T20:43:05.846Z,75.13
2018-07-31T20:45:34.638Z,75.42
2018-07-31T20:48:03.463Z,75.65
2018-07-31T20:50:32.241Z,75.38
2018-07-31T20:53:01.025Z,75.40
2018-07-31T20:55:29.837Z,75.51
2018-07-31T20:57:58.618Z,75.78
2018-07-31T21:00:27.398Z,76.03
2018-07-31T21:02:56.170Z,77.06
2018-07-31T21:05:24.944Z,77.26
2018-07-31T21:07:53.908Z,78.21
2018-07-31T21:10:22.693Z,77.19
2018-07-31T21:12:51.501Z,77.92
2018-07-31T21:15:20.280Z,77.15
2018-07-31T21:17:49.225Z,76.77
2018-07-31T21:20:18.038Z,76.73
2018-07-31T21:22:46.816Z,77.36
2018-07-31T21:25:15.787Z,76.68
2018-07-31T21:27:44.621Z,76.82
2018-07-31T21:30:13.385Z,76.93
2018-07-31T21:32:42.193Z,76.85
2018-07-31T21:35:10.981Z,77.23
2018-07-31T21:37:39.733Z,77.01
2018-07-31T21:40:08.701Z,76.98
2018-07-31T21:42:37.479Z,77.85
2018-07-31T21:45:06.333Z,77.24
2018-07-31T21:47:35.112Z,77.25
2018-07-31T21:50:03.975Z,76.95
2018-07-31T21:52:32.815Z,77.89
2018-07-31T21:55:01.660Z,77.61
2018-07-31T21:57:30.389Z,78.37
2018-07-31T21:59:59.245Z,77.63
2018-07-31T22:02:28.057Z,78.10
2018-07-31T22:04:56.923Z,77.30
2018-07-31T22:07:25.808Z,77.16
2018-07-31T22:09:54.636Z,77.29
2018-07-31T22:12:23.415Z,77.69
2018-07-31T22:14:52.188Z,77.59
2018-07-31T22:17:21.003Z,77.41
2018-07-31T22:19:49.769Z,77.91
2018-07-31T22:22:18.573Z,77.50
2018-07-31T22:24:47.442Z,77.37
2018-07-31T22:27:16.171Z,77.89
2018-07-31T22:29:44.948Z,77.49
2018-07-31T22:32:13.716Z,77.43
2018-07-31T22:34:42.473Z,77.51
2018-07-31T22:37:11.246Z,77.29
2018-07-31T22:39:40.037Z,77.27
2018-07-31T22:42:08.794Z,78.65
2018-07-31T22:44:37.574Z,78.21
2018-07-31T22:47:06.365Z,77.92
2018-07-31T22:49:35.157Z,77.57
2018-07-31T22:52:03.973Z,77.67
2018-07-31T22:54:32.755Z,77.67
2018-07-31T22:57:01.525Z,77.38
2018-07-31T22:59:30.289Z,77.68
2018-07-31T23:01:59.073Z,77.78
2018-07-31T23:04:27.833Z,77.71
2018-07-31T23:06:56.605Z,77.77
2018-07-31T23:09:25.428Z,77.50
2018-07-31T23:11:54.219Z,77.74
2018-07-31T23:14:22.994Z,78.94
2018-07-31T23:16:51.772Z,78.05
2018-07-31T23:19:20.594Z,78.46
2018-07-31T23:21:49.362Z,78.12
2018-07-31T23:24:18.169Z,78.40
2018-07-31T23:26:46.922Z,78.49
2018-07-31T23:29:15.709Z,78.77
2018-07-31T23:31:44.518Z,79.00
2018-07-31T23:34:13.294Z,78.43
2018-07-31T23:36:42.073Z,79.11
2018-07-31T23:39:11.819Z,79.42
2018-07-31T23:41:40.619Z,79.14
2018-07-31T23:44:09.694Z,78.89
2018-07-31T23:46:38.984Z,78.92
2018-07-31T23:49:07.761Z,78.92
2018-07-31T23:51:36.545Z,78.74
2018-07-31T23:54:05.361Z,79.69
2018-07-31T23:56:34.129Z,79.00
2018-07-31T23:59:02.896Z,79.13
